Time;durP1;ratioP1;P1;durP2;ratioP2;P2;SDS_P1;SDS_P2;PMS_P1;PMS_P2;Temp;Humidity;BMP_temperature;BMP_pressure;BME280_temperature;BME280_humidity;BME280_pressure;Samples;Min_cycle;Max_cycle;Signal;HPM_P1;HPM_P2
2023/09/02 00:01:45;;;;;;;1577.25;999.90;;;26.20;99.90;;;;;;5031935;28;20025;-69
2023/09/02 00:04:11;;;;;;;1572.43;999.90;;;26.10;99.90;;;;;;5033427;28;20033;-68
2023/09/02 00:06:38;;;;;;;1565.80;999.90;;;26.20;99.90;;;;;;5017221;28;20104;-69
2023/09/02 00:09:05;;;;;;;1563.18;999.90;;;26.20;99.90;;;;;;5017103;28;20020;-69
2023/09/02 00:11:31;;;;;;;1555.07;999.90;;;26.30;99.90;;;;;;5027883;28;20105;-71
2023/09/02 00:13:58;;;;;;;1568.05;999.90;;;26.20;99.90;;;;;;5030868;28;20439;-67
2023/09/02 00:16:24;;;;;;;1571.50;999.90;;;26.30;99.90;;;;;;5019906;28;20466;-72
2023/09/02 00:18:51;;;;;;;1553.00;999.90;;;26.40;99.90;;;;;;5019135;28;20061;-71
2023/09/02 00:21:18;;;;;;;1537.50;999.90;;;26.40;99.90;;;;;;5004998;28;20124;-68
2023/09/02 00:23:45;;;;;;;1533.20;999.90;;;26.50;99.90;;;;;;5015183;28;20021;-68
2023/09/02 00:26:12;;;;;;;1510.15;999.90;;;26.50;99.90;;;;;;5025909;28;20030;-68
2023/09/02 00:28:39;;;;;;;1528.50;999.90;;;26.60;99.90;;;;;;5021607;28;20053;-72
2023/09/02 00:31:05;;;;;;;1511.35;999.90;;;26.60;99.90;;;;;;5010791;28;20028;-67
2023/09/02 00:33:32;;;;;;;1531.35;999.90;;;26.70;99.90;;;;;;5025017;28;20026;-67
2023/09/02 00:35:59;;;;;;;1523.03;999.90;;;26.80;99.90;;;;;;5016846;28;20386;-68
2023/09/02 00:38:25;;;;;;;1541.13;999.90;;;26.90;99.90;;;;;;5030845;28;20537;-68
2023/09/02 00:40:58;;;;;;;1570.10;999.90;;;26.90;99.90;;;;;;5027630;28;20045;-68
2023/09/02 00:43:24;;;;;;;1550.45;999.90;;;27.00;99.90;;;;;;5025518;28;20026;-68
2023/09/02 00:45:51;;;;;;;1548.60;999.90;;;27.00;99.90;;;;;;5017033;28;20029;-67
2023/09/02 00:48:17;;;;;;;1550.38;999.90;;;27.10;99.90;;;;;;5022325;28;20501;-69
2023/09/02 00:50:44;;;;;;;1559.88;999.90;;;27.10;99.90;;;;;;5034843;28;20029;-68
2023/09/02 00:53:11;;;;;;;1578.25;999.90;;;27.20;99.90;;;;;;5035989;28;20462;-72
2023/09/02 00:55:39;;;;;;;1578.18;999.90;;;27.20;99.90;;;;;;5036024;28;20034;-70
2023/09/02 00:58:07;;;;;;;1571.15;999.90;;;27.30;99.90;;;;;;5036120;28;20022;-68
2023/09/02 01:00:34;;;;;;;1566.03;999.90;;;27.30;99.90;;;;;;5031427;28;20030;-67
2023/09/02 01:03:00;;;;;;;1577.65;999.90;;;27.40;99.90;;;;;;5016476;28;20021;-68
2023/09/02 01:05:27;;;;;;;1531.53;999.90;;;27.50;99.90;;;;;;5016299;28;20048;-68
2023/09/02 01:07:54;;;;;;;1559.35;999.90;;;27.60;99.90;;;;;;5015862;28;20427;-68
2023/09/02 01:10:23;;;;;;;1570.55;999.90;;;27.70;99.90;;;;;;5016139;28;20046;-68
2023/09/02 01:12:50;;;;;;;1590.97;999.90;;;27.70;99.90;;;;;;5016002;28;20030;-68
2023/09/02 01:15:16;;;;;;;1595.78;999.90;;;27.70;99.90;;;;;;5019747;28;20017;-68
2023/09/02 01:17:43;;;;;;;1552.53;999.90;;;27.80;99.90;;;;;;5034831;28;20029;-68
2023/09/02 01:20:14;;;;;;;1592.13;999.90;;;27.90;99.90;;;;;;5032135;28;20041;-68
2023/09/02 01:22:43;;;;;;;1478.65;999.90;;;27.90;99.90;;;;;;5015918;28;20049;-68
2023/09/02 01:25:30;;;;;;;1509.10;999.90;;;28.00;99.90;;;;;;5016141;28;20029;-68
2023/09/02 01:28:03;;;;;;;1492.10;999.90;;;28.00;99.90;;;;;;5012726;28;20407;-68
2023/09/02 01:30:33;;;;;;;1232.70;999.90;;;28.10;99.90;;;;;;5018245;28;20367;-67
2023/09/02 01:33:03;;;;;;;777.75;704.00;;;28.00;99.90;;;;;;5025834;28;20022;-67
2023/09/02 01:35:33;;;;;;;1363.75;999.90;;;28.10;99.90;;;;;;5016171;28;20557;-68
2023/09/02 01:38:03;;;;;;;1385.20;999.90;;;28.20;99.90;;;;;;5023424;28;20030;-68
2023/09/02 01:40:32;;;;;;;1496.82;999.90;;;28.20;99.90;;;;;;5016346;28;20514;-68
2023/09/02 01:43:00;;;;;;;1529.57;999.90;;;28.30;99.90;;;;;;5015592;28;20025;-68
2023/09/02 01:45:30;;;;;;;1533.43;999.90;;;28.40;99.90;;;;;;5015513;28;20030;-68
2023/09/02 01:47:58;;;;;;;1523.47;999.90;;;28.50;99.90;;;;;;5021176;28;20026;-68
2023/09/02 01:50:29;;;;;;;1392.63;999.90;;;28.60;99.90;;;;;;5015552;28;20026;-69
2023/09/02 01:52:58;;;;;;;1364.20;999.90;;;28.70;99.90;;;;;;5020536;28;20458;-73
2023/09/02 01:55:25;;;;;;;674.50;609.22;;;28.80;99.90;;;;;;5018663;28;20382;-67
2023/09/02 01:57:52;;;;;;;1426.22;999.90;;;28.80;99.90;;;;;;5015226;28;20033;-67
2023/09/02 02:00:19;;;;;;;1416.47;999.90;;;28.90;99.90;;;;;;5015285;28;20025;-67
2023/09/02 02:02:49;;;;;;;1515.45;999.90;;;29.00;99.90;;;;;;5015348;28;20422;-67
2023/09/02 02:05:18;;;;;;;1289.47;999.90;;;29.00;99.90;;;;;;5015765;28;20109;-67
2023/09/02 02:07:49;;;;;;;1441.28;999.90;;;29.10;99.90;;;;;;5029398;28;20026;-67
2023/09/02 02:10:19;;;;;;;1315.70;999.90;;;29.10;99.90;;;;;;5034982;28;20048;-67
2023/09/02 02:12:46;;;;;;;1194.80;999.90;;;29.20;99.90;;;;;;5026812;28;20029;-67
2023/09/02 02:15:12;;;;;;;968.72;874.67;;;29.20;99.90;;;;;;5020295;28;20090;-67
2023/09/02 02:17:40;;;;;;;963.05;869.83;;;29.30;99.90;;;;;;5015024;28;20115;-67
2023/09/02 02:20:07;;;;;;;1094.78;980.65;;;29.40;99.90;;;;;;5014953;28;20137;-67
2023/09/02 02:22:33;;;;;;;392.73;352.60;;;29.50;99.90;;;;;;5019184;28;20410;-67
2023/09/02 02:25:00;;;;;;;561.25;505.55;;;29.60;99.90;;;;;;5027051;28;20032;-68
2023/09/02 02:27:27;;;;;;;182.20;164.18;;;29.60;99.90;;;;;;5033866;28;20057;-68
2023/09/02 02:29:53;;;;;;;338.88;304.95;;;29.70;99.90;;;;;;5015461;28;20076;-68
2023/09/02 02:32:20;;;;;;;346.23;312.38;;;29.70;99.90;;;;;;5018290;28;20018;-69
2023/09/02 02:34:46;;;;;;;502.35;452.25;;;29.90;99.90;;;;;;5034433;28;20021;-68
2023/09/02 02:37:13;;;;;;;507.42;454.58;;;29.90;99.90;;;;;;5034378;28;20112;-67
2023/09/02 02:39:40;;;;;;;1385.20;999.90;;;29.90;99.90;;;;;;5034566;28;20049;-67
2023/09/02 02:42:07;;;;;;;147.45;132.75;;;30.00;99.90;;;;;;5034359;28;20026;-66
2023/09/02 02:44:35;;;;;;;144.02;129.98;;;30.00;99.90;;;;;;5026180;28;20030;-67
2023/09/02 02:47:02;;;;;;;200.55;181.45;;;30.10;99.90;;;;;;5014385;28;20510;-67
2023/09/02 02:49:28;;;;;;;426.65;383.63;;;30.10;99.90;;;;;;5020857;28;20029;-68
2023/09/02 02:51:56;;;;;;;1341.18;999.90;;;30.20;99.90;;;;;;5023812;28;20021;-68
2023/09/02 02:54:23;;;;;;;1033.28;934.40;;;30.20;99.90;;;;;;5014362;28;20030;-68
2023/09/02 02:56:49;;;;;;;939.88;849.60;;;30.30;99.90;;;;;;5014333;28;20032;-69
2023/09/02 02:59:17;;;;;;;993.42;896.50;;;30.50;99.90;;;;;;5014184;28;20038;-69
2023/09/02 03:01:44;;;;;;;1172.22;999.90;;;30.50;99.90;;;;;;5014226;28;20111;-69
2023/09/02 03:04:12;;;;;;;1096.45;991.38;;;30.60;99.90;;;;;;5014251;28;20450;-69
2023/09/02 03:06:39;;;;;;;898.95;813.63;;;30.60;99.90;;;;;;5013863;28;20029;-68
2023/09/02 03:09:06;;;;;;;785.67;710.72;;;30.70;99.90;;;;;;4994609;28;20078;-69
2023/09/02 03:11:32;;;;;;;780.53;706.33;;;30.80;99.90;;;;;;4994727;28;20026;-69
2023/09/02 03:13:59;;;;;;;1053.20;948.25;;;30.80;99.90;;;;;;5008620;28;20076;-69
2023/09/02 03:16:25;;;;;;;1136.32;999.90;;;30.90;99.90;;;;;;5026179;28;20025;-69
2023/09/02 03:18:53;;;;;;;861.25;774.17;;;30.90;99.90;;;;;;5033696;28;20025;-69
2023/09/02 03:21:19;;;;;;;208.77;173.63;;;31.00;99.90;;;;;;5030305;28;20460;-68
2023/09/02 03:23:47;;;;;;;207.20;134.50;;;31.00;99.90;;;;;;5033244;28;20083;-69
2023/09/02 03:26:16;;;;;;;233.02;176.20;;;31.00;99.90;;;;;;5033686;28;20017;-69
2023/09/02 03:28:42;;;;;;;635.90;568.80;;;31.10;99.90;;;;;;5033633;28;20021;-69
2023/09/02 03:31:11;;;;;;;182.38;104.80;;;31.10;99.90;;;;;;5013735;28;20542;-69
2023/09/02 03:33:38;;;;;;;236.75;134.50;;;31.10;99.90;;;;;;5013711;28;20125;-69
2023/09/02 03:36:05;;;;;;;228.98;147.70;;;31.10;99.90;;;;;;5013820;28;20056;-69
2023/09/02 03:38:31;;;;;;;224.15;135.88;;;31.20;99.90;;;;;;5013314;28;20025;-69
2023/09/02 03:40:58;;;;;;;405.52;353.20;;;31.30;99.90;;;;;;5013829;28;20382;-66
2023/09/02 03:43:25;;;;;;;554.85;495.25;;;31.30;99.90;;;;;;5021869;28;20044;-66
2023/09/02 03:45:52;;;;;;;1271.75;999.90;;;31.40;99.90;;;;;;5026622;28;20030;-66
2023/09/02 03:48:21;;;;;;;1037.18;932.25;;;31.50;99.90;;;;;;5033740;28;20465;-67
2023/09/02 03:51:12;;;;;;;682.15;612.95;;;31.50;99.90;;;;;;5033806;28;20025;-66
2023/09/02 03:53:39;;;;;;;372.00;328.33;;;31.50;99.90;;;;;;5033675;28;20029;-66
2023/09/02 03:56:06;;;;;;;643.50;578.78;;;31.50;99.90;;;;;;5019303;28;20030;-67
2023/09/02 03:58:32;;;;;;;758.22;678.70;;;31.50;99.90;;;;;;5020677;28;20062;-67
2023/09/02 04:00:59;;;;;;;470.45;419.90;;;31.60;99.90;;;;;;5031053;28;20525;-67
2023/09/02 04:03:27;;;;;;;502.05;448.10;;;31.70;99.90;;;;;;4994660;28;20050;-67
2023/09/02 04:05:53;;;;;;;767.28;690.55;;;31.70;99.90;;;;;;5015471;28;20482;-67
2023/09/02 04:08:23;;;;;;;551.92;495.23;;;31.70;99.90;;;;;;5033188;28;20033;-67
2023/09/02 04:10:52;;;;;;;948.85;855.22;;;31.70;99.90;;;;;;5033075;28;20030;-66
2023/09/02 04:13:23;;;;;;;1357.75;999.90;;;31.70;99.90;;;;;;5033387;28;20029;-67
2023/09/02 04:15:52;;;;;;;600.60;542.13;;;31.70;99.90;;;;;;5033538;28;20025;-67
2023/09/02 04:18:19;;;;;;;710.92;640.95;;;31.80;99.90;;;;;;5033027;28;20156;-66
2023/09/02 04:20:46;;;;;;;454.67;408.00;;;31.90;99.90;;;;;;5016125;28;20018;-66
2023/09/02 04:23:12;;;;;;;498.92;448.85;;;32.10;99.90;;;;;;5014187;28;20544;-68
2023/09/02 04:25:47;;;;;;;365.85;330.05;;;32.20;99.90;;;;;;5022961;28;20028;-67
2023/09/02 04:28:14;;;;;;;435.17;392.42;;;32.20;99.90;;;;;;5032400;28;20054;-67
2023/09/02 04:30:42;;;;;;;321.23;290.42;;;32.40;99.90;;;;;;5023822;28;20387;-67
2023/09/02 04:33:10;;;;;;;181.68;164.00;;;32.40;99.90;;;;;;5022114;28;20022;-67
2023/09/02 04:35:40;;;;;;;389.77;350.70;;;32.30;99.90;;;;;;5033069;28;20034;-67
2023/09/02 04:38:07;;;;;;;270.13;244.57;;;32.30;99.90;;;;;;5033304;28;20026;-67
2023/09/02 04:40:44;;;;;;;718.28;649.33;;;32.30;99.90;;;;;;5032708;28;20045;-67
2023/09/02 04:43:12;;;;;;;370.00;333.67;;;32.40;99.90;;;;;;5032880;28;20049;-67
2023/09/02 04:45:40;;;;;;;561.05;506.63;;;32.40;99.90;;;;;;5032491;28;20032;-67
2023/09/02 04:48:08;;;;;;;222.63;199.90;;;32.30;99.90;;;;;;5032948;28;20026;-67
2023/09/02 04:50:35;;;;;;;703.90;635.35;;;32.30;99.90;;;;;;5036135;28;20366;-68
2023/09/02 04:53:03;;;;;;;427.55;385.20;;;32.40;99.90;;;;;;5036330;28;20017;-68
2023/09/02 04:55:30;;;;;;;633.50;570.85;;;32.40;99.90;;;;;;5036350;28;20036;-68
2023/09/02 04:57:57;;;;;;;589.67;530.83;;;32.30;99.90;;;;;;5036330;28;20120;-67
2023/09/02 05:00:25;;;;;;;183.95;164.07;;;32.30;99.90;;;;;;5036145;28;20390;-68
2023/09/02 05:02:53;;;;;;;144.07;129.55;;;32.30;99.90;;;;;;5036307;28;20033;-67
2023/09/02 05:05:21;;;;;;;191.20;172.85;;;32.40;99.90;;;;;;5036145;28;20057;-67
2023/09/02 05:07:48;;;;;;;129.43;111.07;;;32.40;99.90;;;;;;5035929;28;20478;-66
2023/09/02 05:10:16;;;;;;;235.90;211.80;;;32.40;99.90;;;;;;5036344;28;20428;-68
2023/09/02 05:12:42;;;;;;;131.27;108.63;;;32.40;99.90;;;;;;5036642;28;20370;-67
2023/09/02 05:15:09;;;;;;;69.93;51.33;;;32.30;99.90;;;;;;5020174;28;20021;-68
2023/09/02 05:17:36;;;;;;;60.53;40.15;;;32.30;99.90;;;;;;5016521;28;20048;-67
2023/09/02 05:20:04;;;;;;;72.00;46.75;;;32.30;99.90;;;;;;5021006;28;20479;-66
2023/09/02 05:22:32;;;;;;;82.45;52.88;;;32.40;99.90;;;;;;5016228;28;20454;-67
2023/09/02 05:24:58;;;;;;;89.40;58.40;;;32.60;99.90;;;;;;5016101;28;20018;-66
2023/09/02 05:27:25;;;;;;;105.80;77.80;;;32.60;99.90;;;;;;5015767;28;20084;-67
2023/09/02 05:29:51;;;;;;;80.70;52.85;;;32.80;99.90;;;;;;5015608;28;20071;-67
2023/09/02 05:32:18;;;;;;;70.50;49.88;;;32.90;99.90;;;;;;5016042;28;20037;-67
2023/09/02 05:34:45;;;;;;;63.10;45.75;;;32.90;99.90;;;;;;5015821;28;20108;-66
2023/09/02 05:37:12;;;;;;;63.10;44.53;;;32.90;99.80;;;;;;5015811;28;20030;-66
2023/09/02 05:39:39;;;;;;;61.42;43.40;;;33.00;99.60;;;;;;5015487;28;20058;-67
2023/09/02 05:42:05;;;;;;;60.83;42.95;;;33.10;98.10;;;;;;5019009;28;20037;-69
2023/09/02 05:44:34;;;;;;;126.93;113.65;;;33.20;98.40;;;;;;5016181;28;20109;-67
2023/09/02 05:47:01;;;;;;;58.60;46.50;;;33.20;97.70;;;;;;5015296;28;20049;-67
2023/09/02 05:49:29;;;;;;;64.18;46.83;;;33.10;97.50;;;;;;5015361;28;20029;-67
2023/09/02 05:51:55;;;;;;;57.25;43.20;;;33.10;97.40;;;;;;5014038;28;20471;-66
2023/09/02 05:54:22;;;;;;;50.40;40.45;;;33.10;96.70;;;;;;5015931;28;20105;-71
2023/09/02 05:56:49;;;;;;;54.42;40.28;;;33.20;97.00;;;;;;5015235;28;20053;-70
2023/09/02 05:59:15;;;;;;;55.53;39.15;;;33.30;96.90;;;;;;5015105;28;20356;-68
2023/09/02 06:01:43;;;;;;;48.75;36.97;;;33.30;96.60;;;;;;5014750;28;20793;-68
2023/09/02 06:04:09;;;;;;;48.80;36.15;;;33.30;95.90;;;;;;5015450;28;20033;-68
2023/09/02 06:06:36;;;;;;;43.00;33.95;;;33.30;95.80;;;;;;5015382;28;20064;-73
2023/09/02 06:09:02;;;;;;;48.80;37.42;;;33.40;95.60;;;;;;5015420;28;20030;-68
2023/09/02 06:11:31;;;;;;;58.72;44.13;;;33.40;95.40;;;;;;5016386;28;20020;-68
2023/09/02 06:13:57;;;;;;;64.38;46.58;;;33.40;95.60;;;;;;5019388;28;20029;-63
2023/09/02 06:16:24;;;;;;;67.60;46.35;;;33.40;96.10;;;;;;5018031;28;20034;-69
2023/09/02 06:18:50;;;;;;;216.13;194.68;;;33.30;95.90;;;;;;5014921;28;20022;-71
2023/09/02 06:21:17;;;;;;;55.55;44.67;;;33.20;96.10;;;;;;5021362;28;20048;-69
2023/09/02 06:23:44;;;;;;;61.10;43.15;;;33.10;95.70;;;;;;5020997;28;20029;-70
2023/09/02 06:26:11;;;;;;;140.45;125.53;;;33.20;95.90;;;;;;5012590;28;20033;-69
2023/09/02 06:28:39;;;;;;;57.42;47.53;;;33.20;95.70;;;;;;5014866;28;20026;-74
2023/09/02 06:31:08;;;;;;;334.30;300.23;;;33.30;95.00;;;;;;5014644;28;20105;-70
2023/09/02 06:33:35;;;;;;;61.17;44.47;;;33.30;94.80;;;;;;5014603;28;20382;-70
2023/09/02 06:36:10;;;;;;;191.52;170.18;;;33.30;94.90;;;;;;5014868;28;20223;-68
2023/09/02 06:38:36;;;;;;;74.85;52.13;;;33.50;95.30;;;;;;5013490;28;20034;-68
2023/09/02 06:41:14;;;;;;;60.42;46.17;;;33.50;95.20;;;;;;5014569;28;20103;-68
2023/09/02 06:43:41;;;;;;;57.80;42.40;;;33.50;95.30;;;;;;5014817;28;20021;-69
2023/09/02 06:46:10;;;;;;;52.42;40.75;;;33.40;94.60;;;;;;5014603;28;20100;-68
2023/09/02 06:48:36;;;;;;;63.60;46.15;;;33.40;95.00;;;;;;5025667;28;20213;-69
2023/09/02 06:51:03;;;;;;;58.72;44.80;;;33.40;94.90;;;;;;5014581;28;20080;-68
2023/09/02 06:53:29;;;;;;;58.05;45.47;;;33.50;95.10;;;;;;5014461;28;20101;-69
2023/09/02 06:55:56;;;;;;;337.38;303.08;;;33.60;94.80;;;;;;5014359;28;20060;-71
2023/09/02 06:58:22;;;;;;;842.25;759.50;;;33.60;95.10;;;;;;5018677;28;20022;-71
2023/09/02 07:00:49;;;;;;;916.88;829.45;;;33.60;94.90;;;;;;5018864;28;20029;-68
2023/09/02 07:03:15;;;;;;;746.88;676.42;;;33.50;94.30;;;;;;5034560;28;20463;-68
2023/09/02 07:05:42;;;;;;;733.92;664.25;;;33.40;94.50;;;;;;5034366;28;20101;-68
2023/09/02 07:08:09;;;;;;;579.95;523.03;;;33.40;93.90;;;;;;5033886;28;20036;-68
2023/09/02 07:10:35;;;;;;;570.80;514.95;;;33.40;94.00;;;;;;5033990;28;20083;-69
2023/09/02 07:13:03;;;;;;;645.65;583.20;;;33.50;93.50;;;;;;5033273;28;20097;-69
2023/09/02 07:15:29;;;;;;;240.63;218.75;;;33.40;92.40;;;;;;5033985;28;20096;-67
2023/09/02 07:17:55;;;;;;;204.20;186.23;;;33.50;93.20;;;;;;5033488;28;20404;-67
2023/09/02 07:20:22;;;;;;;325.33;293.85;;;33.50;93.10;;;;;;5033479;28;20025;-68
2023/09/02 07:22:48;;;;;;;282.17;256.05;;;33.50;93.20;;;;;;5028858;28;20026;-68
2023/09/02 07:25:15;;;;;;;268.77;243.93;;;33.40;93.30;;;;;;5019367;28;20025;-68
2023/09/02 07:27:41;;;;;;;231.38;209.85;;;33.40;94.20;;;;;;5024931;28;20060;-68
2023/09/02 07:30:08;;;;;;;404.90;363.38;;;33.50;92.70;;;;;;5013715;28;20050;-67
2023/09/02 07:32:35;;;;;;;410.60;369.25;;;33.50;93.40;;;;;;5026895;28;20018;-67
2023/09/02 07:35:01;;;;;;;403.83;364.05;;;33.50;93.20;;;;;;5031925;28;20032;-67
2023/09/02 07:37:28;;;;;;;359.27;324.23;;;33.50;93.10;;;;;;5012966;28;20577;-68
2023/09/02 07:39:55;;;;;;;214.82;195.00;;;33.50;93.40;;;;;;5012745;28;20120;-68
2023/09/02 07:42:21;;;;;;;285.48;259.08;;;33.60;93.70;;;;;;5018965;28;20052;-67
2023/09/02 07:44:48;;;;;;;195.50;177.55;;;33.60;93.60;;;;;;5026098;28;20026;-66
2023/09/02 07:47:14;;;;;;;234.73;212.43;;;33.60;93.70;;;;;;5023909;28;20459;-66
2023/09/02 07:49:41;;;;;;;601.55;542.85;;;33.70;93.70;;;;;;5008320;28;20029;-70
2023/09/02 07:52:07;;;;;;;522.65;472.25;;;33.80;93.80;;;;;;5012720;28;20032;-69
2023/09/02 07:54:34;;;;;;;131.40;118.95;;;33.80;93.70;;;;;;5013973;28;20025;-67
2023/09/02 07:57:00;;;;;;;396.00;356.15;;;33.80;93.30;;;;;;5014996;28;20018;-67
2023/09/02 07:59:31;;;;;;;190.57;172.07;;;33.80;92.70;;;;;;5009804;28;20113;-69
2023/09/02 08:01:57;;;;;;;57.83;41.53;;;33.80;92.60;;;;;;5015514;28;20053;-71
2023/09/02 08:04:24;;;;;;;61.38;43.17;;;33.70;93.20;;;;;;5029462;28;20493;-69
2023/09/02 08:06:50;;;;;;;58.38;44.08;;;33.70;93.20;;;;;;5012032;28;20038;-69
2023/09/02 08:09:19;;;;;;;65.93;47.05;;;33.60;93.20;;;;;;5013002;28;20022;-69
2023/09/02 08:11:45;;;;;;;65.82;47.60;;;33.60;92.60;;;;;;5011807;28;20022;-69
2023/09/02 08:14:12;;;;;;;70.88;53.30;;;33.50;93.10;;;;;;5012447;28;20486;-69
2023/09/02 08:16:38;;;;;;;71.07;51.92;;;33.60;93.00;;;;;;5013212;28;20029;-69
2023/09/02 08:19:06;;;;;;;72.53;52.40;;;33.60;93.50;;;;;;5025912;28;20124;-68
2023/09/02 08:21:33;;;;;;;77.95;51.33;;;33.60;93.10;;;;;;5030831;28;20462;-68
2023/09/02 08:23:59;;;;;;;78.35;53.40;;;33.70;93.70;;;;;;5033126;28;20100;-66
2023/09/02 08:26:26;;;;;;;74.32;51.05;;;33.60;93.50;;;;;;5035394;28;20036;-69
2023/09/02 08:28:52;;;;;;;69.90;49.63;;;33.70;93.30;;;;;;5036134;28;20029;-67
2023/09/02 08:31:19;;;;;;;78.30;54.55;;;33.70;93.50;;;;;;5036254;28;20039;-67
2023/09/02 08:33:46;;;;;;;69.10;49.53;;;33.70;93.50;;;;;;5036478;28;20479;-67
2023/09/02 08:36:15;;;;;;;71.38;52.53;;;33.70;93.50;;;;;;5036518;28;20017;-68
2023/09/02 08:38:42;;;;;;;65.03;48.58;;;33.70;92.80;;;;;;5036731;28;20432;-68
2023/09/02 08:41:17;;;;;;;87.28;58.65;;;33.60;93.10;;;;;;5036494;28;20045;-68
2023/09/02 08:43:44;;;;;;;102.70;65.90;;;33.60;93.40;;;;;;5036305;28;20084;-68
2023/09/02 08:46:13;;;;;;;118.50;80.38;;;33.50;93.20;;;;;;5036500;28;20014;-68
2023/09/02 08:48:43;;;;;;;101.68;68.55;;;33.50;93.20;;;;;;5036521;28;20104;-68
2023/09/02 08:51:11;;;;;;;106.00;70.20;;;33.50;93.10;;;;;;5027577;28;20026;-68
2023/09/02 08:53:39;;;;;;;99.25;72.50;;;33.50;93.10;;;;;;5031198;28;20486;-68
2023/09/02 08:56:10;;;;;;;111.50;74.65;;;33.60;93.50;;;;;;5036206;28;20471;-66
2023/09/02 08:58:40;;;;;;;98.05;68.30;;;33.60;93.40;;;;;;5026031;28;20545;-69
2023/09/02 09:01:07;;;;;;;110.22;70.07;;;33.60;93.10;;;;;;5016329;28;20029;-68
2023/09/02 09:03:34;;;;;;;101.32;66.65;;;33.70;93.20;;;;;;5016089;28;20033;-68
2023/09/02 09:06:02;;;;;;;77.88;54.70;;;33.70;93.10;;;;;;5016998;28;20022;-67
2023/09/02 09:08:31;;;;;;;72.65;51.08;;;33.70;93.20;;;;;;5036010;28;20037;-68
2023/09/02 09:10:58;;;;;;;73.55;49.53;;;33.60;93.50;;;;;;5035778;28;20029;-69
2023/09/02 09:13:26;;;;;;;81.25;53.88;;;33.60;93.20;;;;;;5035753;28;20021;-68
2023/09/02 09:15:56;;;;;;;76.00;49.70;;;33.60;93.30;;;;;;5016212;28;20486;-68
2023/09/02 09:18:23;;;;;;;71.38;44.13;;;33.50;92.90;;;;;;5016021;28;20026;-69
2023/09/02 09:20:50;;;;;;;79.60;49.83;;;33.50;93.00;;;;;;5016096;28;20391;-67
2023/09/02 09:23:16;;;;;;;70.88;47.85;;;33.50;92.40;;;;;;5021906;28;20160;-68
2023/09/02 09:25:44;;;;;;;82.25;52.88;;;33.50;92.70;;;;;;5021715;28;20102;-68
2023/09/02 09:28:12;;;;;;;84.80;54.00;;;33.50;93.00;;;;;;5034223;28;20033;-67
2023/09/02 09:30:39;;;;;;;91.43;58.88;;;33.40;92.90;;;;;;5035805;28;20048;-65
2023/09/02 09:33:06;;;;;;;89.15;59.65;;;33.40;92.70;;;;;;5035554;28;20032;-65
2023/09/02 09:35:34;;;;;;;90.88;59.15;;;33.40;92.80;;;;;;5034957;28;20033;-65
2023/09/02 09:38:01;;;;;;;70.13;50.38;;;33.40;92.80;;;;;;5035541;28;20021;-66
2023/09/02 09:40:34;;;;;;;75.00;49.70;;;33.40;92.60;;;;;;5035263;28;20053;-67
2023/09/02 09:43:02;;;;;;;72.13;51.17;;;33.40;92.90;;;;;;5026186;28;20457;-67
2023/09/02 09:45:30;;;;;;;68.55;50.90;;;33.50;92.80;;;;;;5032327;28;20470;-68
2023/09/02 09:48:15;;;;;;;74.20;49.97;;;33.40;92.80;;;;;;5035506;28;20022;-68
2023/09/02 09:50:41;;;;;;;72.80;51.30;;;33.40;92.80;;;;;;5035341;28;20030;-68
2023/09/02 09:53:09;;;;;;;105.72;61.63;;;33.50;92.90;;;;;;5035127;28;20021;-67
2023/09/02 09:55:37;;;;;;;105.97;64.45;;;33.50;93.00;;;;;;5035513;28;20048;-66
2023/09/02 09:58:05;;;;;;;122.55;75.10;;;33.40;93.00;;;;;;5035261;28;20080;-67
2023/09/02 10:00:31;;;;;;;117.53;83.13;;;33.40;93.10;;;;;;5035084;28;20467;-67
2023/09/02 10:02:59;;;;;;;180.48;120.85;;;33.40;92.80;;;;;;5033499;28;20458;-68
2023/09/02 10:05:30;;;;;;;907.90;580.78;;;33.40;92.50;;;;;;5015443;28;20025;-69
2023/09/02 10:08:02;;;;;;;601.03;356.95;;;33.40;92.70;;;;;;5015104;28;20222;-67
2023/09/02 10:10:33;;;;;;;684.35;328.52;;;33.40;92.70;;;;;;5015121;28;20021;-68
2023/09/02 10:13:00;;;;;;;457.70;206.55;;;33.30;92.80;;;;;;5014899;28;20026;-69
2023/09/02 10:15:27;;;;;;;637.47;336.90;;;33.40;93.00;;;;;;5014988;28;20030;-69
2023/09/02 10:17:57;;;;;;;546.10;246.40;;;33.30;92.70;;;;;;5029450;28;20034;-68
2023/09/02 10:20:27;;;;;;;582.10;343.85;;;33.30;92.80;;;;;;5025122;28;20025;-69
2023/09/02 10:22:56;;;;;;;417.65;155.63;;;33.30;93.00;;;;;;5014845;28;20112;-68
2023/09/02 10:25:29;;;;;;;228.20;98.28;;;33.20;93.80;;;;;;5030727;28;20044;-69
2023/09/02 10:28:10;;;;;;;299.48;127.93;;;33.20;94.20;;;;;;5014650;28;20040;-68
2023/09/02 10:30:44;;;;;;;181.07;98.22;;;33.20;94.00;;;;;;5023271;28;20395;-69
2023/09/02 10:33:20;;;;;;;134.05;67.97;;;33.10;94.50;;;;;;5022626;28;20103;-67
2023/09/02 10:36:00;;;;;;;107.85;54.47;;;33.10;95.10;;;;;;5015817;28;20363;-69
2023/09/02 10:38:33;;;;;;;94.70;51.80;;;33.00;95.30;;;;;;5016451;28;20034;-69
2023/09/02 10:41:10;;;;;;;66.97;44.15;;;32.90;95.30;;;;;;5014303;28;20201;-69
2023/09/02 10:43:37;;;;;;;88.82;54.88;;;32.90;95.60;;;;;;5014393;28;20379;-69
2023/09/02 10:46:04;;;;;;;85.50;52.60;;;32.90;95.70;;;;;;5013871;28;20071;-70
2023/09/02 10:48:33;;;;;;;101.00;55.22;;;32.80;95.80;;;;;;5010855;28;20494;-70
2023/09/02 10:51:00;;;;;;;84.93;55.95;;;32.80;96.00;;;;;;5013465;28;20036;-69
2023/09/02 10:53:50;;;;;;;98.30;51.80;;;32.70;95.90;;;;;;5013461;28;20021;-69
2023/09/02 10:56:26;;;;;;;74.82;43.47;;;32.70;96.10;;;;;;5013926;28;20521;-69
2023/09/02 10:58:53;;;;;;;67.13;39.60;;;32.70;96.60;;;;;;5012621;28;20044;-69
2023/09/02 11:01:20;;;;;;;139.25;115.70;;;32.60;96.70;;;;;;5009633;28;20025;-72
2023/09/02 11:03:49;;;;;;;67.55;38.75;;;32.50;97.10;;;;;;5013551;28;20025;-71
2023/09/02 11:06:16;;;;;;;71.15;39.03;;;32.50;97.50;;;;;;5009838;28;20109;-70
2023/09/02 11:08:45;;;;;;;81.28;42.63;;;32.40;97.40;;;;;;5014933;28;20030;-69
2023/09/02 11:11:15;;;;;;;73.25;40.25;;;32.40;97.70;;;;;;5013369;28;20018;-71
2023/09/02 11:14:10;;;;;;;66.38;38.97;;;32.30;97.70;;;;;;5012250;28;20033;-71
2023/09/02 11:16:40;;;;;;;79.70;42.15;;;32.30;97.90;;;;;;5012396;28;20030;-69
2023/09/02 11:19:09;;;;;;;66.28;37.90;;;32.30;97.50;;;;;;5010216;28;20376;-70
2023/09/02 11:21:38;;;;;;;49.47;31.35;;;32.20;97.70;;;;;;5013359;28;20030;-68
2023/09/02 11:24:14;;;;;;;48.38;27.63;;;32.10;97.90;;;;;;5014210;28;20073;-71
2023/09/02 11:26:50;;;;;;;47.20;28.25;;;32.00;98.00;;;;;;5015277;28;20033;-70
2023/09/02 11:29:27;;;;;;;46.92;29.77;;;32.00;98.20;;;;;;5011907;28;20022;-72
2023/09/02 11:32:04;;;;;;;56.90;28.90;;;32.00;98.50;;;;;;5012772;28;20422;-69
2023/09/02 11:34:31;;;;;;;46.05;27.25;;;32.00;98.80;;;;;;5009925;28;20120;-69
2023/09/02 11:37:00;;;;;;;36.25;23.90;;;32.00;99.00;;;;;;5014110;28;20368;-70
2023/09/02 11:39:28;;;;;;;45.95;26.30;;;31.80;99.10;;;;;;5009330;28;20036;-71
2023/09/02 11:42:16;;;;;;;44.75;26.38;;;31.90;99.30;;;;;;5013143;28;20045;-68
2023/09/02 11:44:51;;;;;;;45.30;26.85;;;31.80;99.80;;;;;;5012279;28;20026;-69
2023/09/02 11:47:18;;;;;;;51.33;26.42;;;31.80;99.80;;;;;;5011811;28;20029;-68
2023/09/02 11:49:44;;;;;;;57.20;30.85;;;31.70;99.90;;;;;;5013221;28;20021;-68
2023/09/02 11:52:11;;;;;;;39.53;25.88;;;31.60;99.90;;;;;;5012098;28;20053;-69
2023/09/02 11:54:38;;;;;;;54.60;31.20;;;31.60;99.90;;;;;;5013099;28;20037;-69
2023/09/02 11:57:04;;;;;;;51.78;31.20;;;31.60;99.90;;;;;;5013103;28;20379;-66
2023/09/02 11:59:31;;;;;;;55.33;32.17;;;31.50;99.90;;;;;;5012773;28;20033;-67
2023/09/02 12:02:15;;;;;;;179.10;154.05;;;31.50;99.90;;;;;;5012996;28;20029;-69
2023/09/02 12:04:45;;;;;;;115.82;89.93;;;31.50;99.90;;;;;;5011939;28;20025;-68
2023/09/02 12:07:11;;;;;;;81.55;40.63;;;31.40;99.90;;;;;;5010612;28;20084;-69
2023/09/02 12:09:38;;;;;;;175.32;137.60;;;31.40;99.90;;;;;;5013057;28;20026;-69
2023/09/02 12:12:07;;;;;;;105.13;59.38;;;31.40;99.90;;;;;;5013104;28;20020;-71
2023/09/02 12:14:40;;;;;;;69.03;42.83;;;31.40;99.90;;;;;;5014340;28;20121;-70
2023/09/02 12:17:07;;;;;;;51.67;34.38;;;31.40;99.90;;;;;;5012392;28;20030;-68
2023/09/02 12:19:34;;;;;;;44.63;28.98;;;31.30;99.90;;;;;;5014521;28;20034;-69